sensor_id;sensor_type;location;lat;lon;timestamp;pressure;altitude;pressure_sealevel;temperature;humidity
77118;BME280;66072;50.238;19.228;2023-07-13T00:00:16;98219.51;;;19.25;88.26
77118;BME280;66072;50.238;19.228;2023-07-13T00:03:04;98228.77;;;19.19;89.64
77118;BME280;66072;50.238;19.228;2023-07-13T00:05:32;98223.04;;;19.13;90.12
77118;BME280;66072;50.238;19.228;2023-07-13T00:08:00;98224.06;;;19.09;89.91
77118;BME280;66072;50.238;19.228;2023-07-13T00:10:28;98215.19;;;19.03;90.36
77118;BME280;66072;50.238;19.228;2023-07-13T00:12:56;98207.81;;;18.96;91.97
77118;BME280;66072;50.238;19.228;2023-07-13T00:15:26;98200.13;;;18.91;93.06
77118;BME280;66072;50.238;19.228;2023-07-13T00:17:55;98194.58;;;18.87;92.78
77118;BME280;66072;50.238;19.228;2023-07-13T00:20:24;98191.66;;;18.84;92.76
77118;BME280;66072;50.238;19.228;2023-07-13T00:22:52;98180.48;;;18.83;92.78
77118;BME280;66072;50.238;19.228;2023-07-13T00:25:22;98185.08;;;18.82;93.04
77118;BME280;66072;50.238;19.228;2023-07-13T00:27:50;98192.52;;;18.80;93.62
77118;BME280;66072;50.238;19.228;2023-07-13T00:30:18;98207.84;;;18.77;93.66
77118;BME280;66072;50.238;19.228;2023-07-13T00:32:46;98223.23;;;18.73;93.40
77118;BME280;66072;50.238;19.228;2023-07-13T00:35:14;98229.52;;;18.70;93.17
77118;BME280;66072;50.238;19.228;2023-07-13T00:37:42;98227.58;;;18.67;93.60
77118;BME280;66072;50.238;19.228;2023-07-13T00:40:12;98222.81;;;18.66;92.75
77118;BME280;66072;50.238;19.228;2023-07-13T00:42:40;98219.08;;;18.65;92.37
77118;BME280;66072;50.238;19.228;2023-07-13T00:47:43;98194.94;;;18.65;92.31
77118;BME280;66072;50.238;19.228;2023-07-13T00:50:14;98179.88;;;18.65;92.13
77118;BME280;66072;50.238;19.228;2023-07-13T00:52:46;98168.71;;;18.64;92.04
77118;BME280;66072;50.238;19.228;2023-07-13T00:55:17;98155.88;;;18.64;92.34
77118;BME280;66072;50.238;19.228;2023-07-13T00:57:45;98149.67;;;18.64;92.28
77118;BME280;66072;50.238;19.228;2023-07-13T01:00:13;98143.54;;;18.63;92.17
77118;BME280;66072;50.238;19.228;2023-07-13T01:02:42;98142.06;;;18.64;92.20
77118;BME280;66072;50.238;19.228;2023-07-13T01:05:20;98135.05;;;18.63;92.08
77118;BME280;66072;50.238;19.228;2023-07-13T01:07:50;98144.58;;;18.63;92.34
77118;BME280;66072;50.238;19.228;2023-07-13T01:10:22;98155.79;;;18.59;92.83
77118;BME280;66072;50.238;19.228;2023-07-13T01:12:50;98154.16;;;18.54;93.32
77118;BME280;66072;50.238;19.228;2023-07-13T01:15:44;98150.81;;;18.50;92.96
77118;BME280;66072;50.238;19.228;2023-07-13T01:18:18;98152.53;;;18.49;93.10
77118;BME280;66072;50.238;19.228;2023-07-13T01:20:57;98148.87;;;18.47;93.13
77118;BME280;66072;50.238;19.228;2023-07-13T01:23:26;98149.38;;;18.47;93.72
77118;BME280;66072;50.238;19.228;2023-07-13T01:25:55;98152.15;;;18.47;93.67
77118;BME280;66072;50.238;19.228;2023-07-13T01:28:23;98149.87;;;18.45;93.74
77118;BME280;66072;50.238;19.228;2023-07-13T01:30:53;98151.67;;;18.44;93.78
77118;BME280;66072;50.238;19.228;2023-07-13T01:33:21;98155.30;;;18.44;93.83
77118;BME280;66072;50.238;19.228;2023-07-13T01:35:49;98155.27;;;18.45;94.15
77118;BME280;66072;50.238;19.228;2023-07-13T01:38:19;98149.30;;;18.46;93.85
77118;BME280;66072;50.238;19.228;2023-07-13T01:40:47;98147.63;;;18.45;93.53
77118;BME280;66072;50.238;19.228;2023-07-13T01:43:15;98143.39;;;18.46;94.00
77118;BME280;66072;50.238;19.228;2023-07-13T01:45:42;98143.17;;;18.45;93.64
77118;BME280;66072;50.238;19.228;2023-07-13T01:48:13;98156.15;;;18.43;93.54
77118;BME280;66072;50.238;19.228;2023-07-13T01:50:41;98171.08;;;18.38;95.34
77118;BME280;66072;50.238;19.228;2023-07-13T01:53:09;98165.28;;;18.33;95.41
77118;BME280;66072;50.238;19.228;2023-07-13T01:55:37;98159.21;;;18.29;95.48
77118;BME280;66072;50.238;19.228;2023-07-13T01:58:05;98161.85;;;18.26;95.41
77118;BME280;66072;50.238;19.228;2023-07-13T02:00:33;98168.02;;;18.24;95.50
77118;BME280;66072;50.238;19.228;2023-07-13T02:03:00;98167.73;;;18.24;95.89
77118;BME280;66072;50.238;19.228;2023-07-13T02:05:28;98172.95;;;18.26;96.05
77118;BME280;66072;50.238;19.228;2023-07-13T02:07:56;98166.19;;;18.28;96.00
77118;BME280;66072;50.238;19.228;2023-07-13T02:10:25;98149.78;;;18.30;96.50
77118;BME280;66072;50.238;19.228;2023-07-13T02:12:53;98147.77;;;18.29;96.59
77118;BME280;66072;50.238;19.228;2023-07-13T02:15:20;98148.08;;;18.27;96.28
77118;BME280;66072;50.238;19.228;2023-07-13T02:17:48;98150.86;;;18.25;96.17
77118;BME280;66072;50.238;19.228;2023-07-13T02:20:16;98155.71;;;18.23;96.48
77118;BME280;66072;50.238;19.228;2023-07-13T02:22:43;98162.65;;;18.20;96.76
77118;BME280;66072;50.238;19.228;2023-07-13T02:25:11;98176.97;;;18.17;97.32
77118;BME280;66072;50.238;19.228;2023-07-13T02:27:39;98182.81;;;18.15;97.47
77118;BME280;66072;50.238;19.228;2023-07-13T02:30:10;98171.71;;;18.13;97.63
77118;BME280;66072;50.238;19.228;2023-07-13T02:32:37;98149.36;;;18.12;97.66
77118;BME280;66072;50.238;19.228;2023-07-13T02:35:05;98150.55;;;18.12;97.45
77118;BME280;66072;50.238;19.228;2023-07-13T02:37:33;98146.40;;;18.12;97.43
77118;BME280;66072;50.238;19.228;2023-07-13T02:40:01;98137.21;;;18.12;97.57
77118;BME280;66072;50.238;19.228;2023-07-13T02:42:28;98136.23;;;18.11;97.63
77118;BME280;66072;50.238;19.228;2023-07-13T02:44:56;98126.06;;;18.11;97.48
77118;BME280;66072;50.238;19.228;2023-07-13T02:47:24;98111.77;;;18.10;97.27
77118;BME280;66072;50.238;19.228;2023-07-13T02:49:52;98112.06;;;18.08;97.37
77118;BME280;66072;50.238;19.228;2023-07-13T02:52:20;98109.14;;;18.06;97.13
77118;BME280;66072;50.238;19.228;2023-07-13T02:54:47;98104.55;;;18.03;97.08
77118;BME280;66072;50.238;19.228;2023-07-13T02:57:15;98102.34;;;18.01;96.95
77118;BME280;66072;50.238;19.228;2023-07-13T02:59:43;98095.46;;;17.98;97.11
77118;BME280;66072;50.238;19.228;2023-07-13T03:02:11;98099.52;;;17.95;96.57
77118;BME280;66072;50.238;19.228;2023-07-13T03:04:38;98097.31;;;17.92;96.24
77118;BME280;66072;50.238;19.228;2023-07-13T03:07:07;98101.80;;;17.90;96.32
77118;BME280;66072;50.238;19.228;2023-07-13T03:09:35;98107.73;;;17.88;96.40
77118;BME280;66072;50.238;19.228;2023-07-13T03:12:03;98113.52;;;17.87;96.32
77118;BME280;66072;50.238;19.228;2023-07-13T03:14:31;98126.98;;;17.87;96.09
77118;BME280;66072;50.238;19.228;2023-07-13T03:16:58;98133.05;;;17.87;95.97
77118;BME280;66072;50.238;19.228;2023-07-13T03:19:26;98135.95;;;17.88;95.67
77118;BME280;66072;50.238;19.228;2023-07-13T03:21:54;98133.80;;;17.89;95.82
77118;BME280;66072;50.238;19.228;2023-07-13T03:24:21;98135.92;;;17.90;95.69
77118;BME280;66072;50.238;19.228;2023-07-13T03:26:49;98144.21;;;17.92;95.56
77118;BME280;66072;50.238;19.228;2023-07-13T03:29:17;98141.66;;;17.96;95.20
77118;BME280;66072;50.238;19.228;2023-07-13T03:31:45;98148.26;;;18.00;95.11
77118;BME280;66072;50.238;19.228;2023-07-13T03:34:12;98155.27;;;18.05;94.95
77118;BME280;66072;50.238;19.228;2023-07-13T03:36:40;98157.55;;;18.13;94.71
77118;BME280;66072;50.238;19.228;2023-07-13T03:39:08;98155.44;;;18.24;94.83
77118;BME280;66072;50.238;19.228;2023-07-13T03:41:37;98161.64;;;18.35;94.66
77118;BME280;66072;50.238;19.228;2023-07-13T03:44:05;98170.77;;;18.44;94.67
77118;BME280;66072;50.238;19.228;2023-07-13T03:46:33;98182.39;;;18.50;94.41
77118;BME280;66072;50.238;19.228;2023-07-13T03:49:01;98187.10;;;18.56;94.37
77118;BME280;66072;50.238;19.228;2023-07-13T03:51:29;98184.59;;;18.61;94.19
77118;BME280;66072;50.238;19.228;2023-07-13T03:53:56;98185.41;;;18.66;94.29
77118;BME280;66072;50.238;19.228;2023-07-13T03:56:24;98185.65;;;18.69;94.17
77118;BME280;66072;50.238;19.228;2023-07-13T03:58:52;98187.91;;;18.73;93.98
77118;BME280;66072;50.238;19.228;2023-07-13T04:01:22;98194.22;;;18.78;94.17
77118;BME280;66072;50.238;19.228;2023-07-13T04:03:50;98194.40;;;18.85;94.24
77118;BME280;66072;50.238;19.228;2023-07-13T04:06:28;98193.80;;;18.89;94.03
77118;BME280;66072;50.238;19.228;2023-07-13T04:08:58;98196.14;;;18.93;93.79
77118;BME280;66072;50.238;19.228;2023-07-13T04:11:29;98204.16;;;18.96;93.74
77118;BME280;66072;50.238;19.228;2023-07-13T04:13:57;98207.27;;;19.00;93.69
77118;BME280;66072;50.238;19.228;2023-07-13T04:16:25;98207.71;;;19.05;93.31
77118;BME280;66072;50.238;19.228;2023-07-13T04:18:55;98210.21;;;19.11;93.11
77118;BME280;66072;50.238;19.228;2023-07-13T04:21:23;98213.06;;;19.18;92.91
77118;BME280;66072;50.238;19.228;2023-07-13T04:23:50;98218.95;;;19.26;92.94
77118;BME280;66072;50.238;19.228;2023-07-13T04:26:18;98220.47;;;19.36;92.75
77118;BME280;66072;50.238;19.228;2023-07-13T04:28:46;98219.59;;;19.46;92.34
77118;BME280;66072;50.238;19.228;2023-07-13T04:31:14;98230.70;;;19.58;92.31
77118;BME280;66072;50.238;19.228;2023-07-13T04:33:42;98229.76;;;19.69;92.16
77118;BME280;66072;50.238;19.228;2023-07-13T04:36:12;98223.44;;;19.78;91.69
77118;BME280;66072;50.238;19.228;2023-07-13T04:38:40;98220.11;;;19.86;91.35
77118;BME280;66072;50.238;19.228;2023-07-13T04:41:08;98215.21;;;19.95;91.03
77118;BME280;66072;50.238;19.228;2023-07-13T04:43:36;98214.33;;;20.04;90.77
77118;BME280;66072;50.238;19.228;2023-07-13T04:46:08;98212.14;;;20.17;90.78
77118;BME280;66072;50.238;19.228;2023-07-13T04:48:38;98204.20;;;20.30;90.72
77118;BME280;66072;50.238;19.228;2023-07-13T04:51:06;98200.19;;;20.42;90.29
77118;BME280;66072;50.238;19.228;2023-07-13T04:53:34;98196.46;;;20.53;89.75
77118;BME280;66072;50.238;19.228;2023-07-13T04:56:03;98193.46;;;20.64;89.51
77118;BME280;66072;50.238;19.228;2023-07-13T04:58:31;98185.87;;;20.75;89.19
77118;BME280;66072;50.238;19.228;2023-07-13T05:01:01;98184.79;;;20.86;88.92
77118;BME280;66072;50.238;19.228;2023-07-13T05:03:29;98177.91;;;20.97;88.54
77118;BME280;66072;50.238;19.228;2023-07-13T05:05:59;98180.38;;;21.06;88.22
77118;BME280;66072;50.238;19.228;2023-07-13T05:08:27;98183.46;;;21.14;87.89
77118;BME280;66072;50.238;19.228;2023-07-13T05:10:55;98176.17;;;21.21;87.24
77118;BME280;66072;50.238;19.228;2023-07-13T05:13:23;98168.52;;;21.26;87.17
77118;BME280;66072;50.238;19.228;2023-07-13T05:15:59;98164.41;;;21.33;86.81
77118;BME280;66072;50.238;19.228;2023-07-13T05:18:28;98159.63;;;21.37;86.81
77118;BME280;66072;50.238;19.228;2023-07-13T05:21:04;98162.92;;;21.41;86.50
77118;BME280;66072;50.238;19.228;2023-07-13T05:23:33;98165.61;;;21.44;86.36
77118;BME280;66072;50.238;19.228;2023-07-13T05:26:02;98168.44;;;21.48;86.31
77118;BME280;66072;50.238;19.228;2023-07-13T05:28:37;98172.43;;;21.51;86.30
77118;BME280;66072;50.238;19.228;2023-07-13T05:31:08;98177.02;;;21.56;86.19
77118;BME280;66072;50.238;19.228;2023-07-13T05:33:37;98179.56;;;21.62;86.12
77118;BME280;66072;50.238;19.228;2023-07-13T05:36:05;98181.56;;;21.70;85.94
77118;BME280;66072;50.238;19.228;2023-07-13T05:38:33;98182.91;;;21.81;85.71
77118;BME280;66072;50.238;19.228;2023-07-13T05:41:01;98187.14;;;21.93;85.24
77118;BME280;66072;50.238;19.228;2023-07-13T05:43:33;98184.47;;;22.07;84.39
77118;BME280;66072;50.238;19.228;2023-07-13T05:46:02;98181.55;;;22.17;83.97
77118;BME280;66072;50.238;19.228;2023-07-13T05:48:30;98178.95;;;22.32;84.03
77118;BME280;66072;50.238;19.228;2023-07-13T05:50:58;98180.08;;;22.47;83.22
77118;BME280;66072;50.238;19.228;2023-07-13T05:53:25;98177.11;;;22.60;82.82
77118;BME280;66072;50.238;19.228;2023-07-13T05:55:54;98172.20;;;22.70;82.12
77118;BME280;66072;50.238;19.228;2023-07-13T05:58:22;98165.43;;;22.85;82.00
77118;BME280;66072;50.238;19.228;2023-07-13T06:00:59;98167.73;;;23.06;81.13
77118;BME280;66072;50.238;19.228;2023-07-13T06:03:27;98167.30;;;23.22;80.22
77118;BME280;66072;50.238;19.228;2023-07-13T06:05:55;98166.73;;;23.36;79.78
77118;BME280;66072;50.238;19.228;2023-07-13T06:08:22;98166.50;;;23.51;79.06
77118;BME280;66072;50.238;19.228;2023-07-13T06:10:50;98167.60;;;23.66;78.73
77118;BME280;66072;50.238;19.228;2023-07-13T06:13:18;98166.25;;;23.77;77.87
77118;BME280;66072;50.238;19.228;2023-07-13T06:15:49;98162.14;;;23.89;77.35
77118;BME280;66072;50.238;19.228;2023-07-13T06:18:17;98161.71;;;24.01;77.05
77118;BME280;66072;50.238;19.228;2023-07-13T06:20:45;98168.83;;;24.11;76.49
77118;BME280;66072;50.238;19.228;2023-07-13T06:23:12;98171.17;;;24.18;76.05
77118;BME280;66072;50.238;19.228;2023-07-13T06:25:40;98173.64;;;24.26;75.83
77118;BME280;66072;50.238;19.228;2023-07-13T06:28:08;98176.89;;;24.36;75.37
77118;BME280;66072;50.238;19.228;2023-07-13T06:30:38;98173.41;;;24.46;74.87
77118;BME280;66072;50.238;19.228;2023-07-13T06:33:06;98169.98;;;24.59;74.72
77118;BME280;66072;50.238;19.228;2023-07-13T06:35:34;98171.55;;;24.72;74.72
77118;BME280;66072;50.238;19.228;2023-07-13T06:38:02;98172.45;;;24.89;73.84
77118;BME280;66072;50.238;19.228;2023-07-13T06:40:30;98171.23;;;25.04;73.17
77118;BME280;66072;50.238;19.228;2023-07-13T06:42:58;98169.50;;;25.22;73.20
77118;BME280;66072;50.238;19.228;2023-07-13T06:45:26;98168.30;;;25.46;72.49
77118;BME280;66072;50.238;19.228;2023-07-13T06:47:54;98169.01;;;25.72;71.35
77118;BME280;66072;50.238;19.228;2023-07-13T06:50:22;98165.36;;;25.87;70.40
77118;BME280;66072;50.238;19.228;2023-07-13T06:52:49;98161.14;;;25.95;69.91
77118;BME280;66072;50.238;19.228;2023-07-13T06:55:17;98165.09;;;26.09;69.18
77118;BME280;66072;50.238;19.228;2023-07-13T06:57:45;98166.78;;;26.19;68.08
77118;BME280;66072;50.238;19.228;2023-07-13T07:00:13;98166.94;;;26.23;67.91
77118;BME280;66072;50.238;19.228;2023-07-13T07:02:41;98169.85;;;26.40;67.91
77118;BME280;66072;50.238;19.228;2023-07-13T07:05:09;98175.27;;;26.60;67.30
77118;BME280;66072;50.238;19.228;2023-07-13T07:07:36;98182.79;;;26.82;66.93
77118;BME280;66072;50.238;19.228;2023-07-13T07:10:05;98186.52;;;27.00;65.80
77118;BME280;66072;50.238;19.228;2023-07-13T07:12:33;98187.52;;;27.13;64.61
77118;BME280;66072;50.238;19.228;2023-07-13T07:15:00;98191.27;;;27.21;64.34
77118;BME280;66072;50.238;19.228;2023-07-13T07:17:28;98196.79;;;27.38;64.17
77118;BME280;66072;50.238;19.228;2023-07-13T07:19:56;98201.12;;;27.56;63.31
77118;BME280;66072;50.238;19.228;2023-07-13T07:22:24;98204.65;;;27.72;62.43
77118;BME280;66072;50.238;19.228;2023-07-13T07:24:52;98206.36;;;27.87;61.96
77118;BME280;66072;50.238;19.228;2023-07-13T07:27:21;98211.77;;;28.01;61.28
77118;BME280;66072;50.238;19.228;2023-07-13T07:29:53;98218.65;;;28.11;60.53
77118;BME280;66072;50.238;19.228;2023-07-13T07:32:41;98222.29;;;28.16;60.70
77118;BME280;66072;50.238;19.228;2023-07-13T07:35:24;98227.45;;;28.17;59.64
77118;BME280;66072;50.238;19.228;2023-07-13T07:37:51;98231.33;;;28.05;59.00
77118;BME280;66072;50.238;19.228;2023-07-13T07:40:19;98232.79;;;27.78;59.43
77118;BME280;66072;50.238;19.228;2023-07-13T07:42:50;98231.49;;;27.62;59.57
77118;BME280;66072;50.238;19.228;2023-07-13T07:45:18;98235.28;;;27.54;59.67
77118;BME280;66072;50.238;19.228;2023-07-13T07:47:46;98238.23;;;27.32;59.13
77118;BME280;66072;50.238;19.228;2023-07-13T07:50:14;98235.30;;;27.19;60.49
77118;BME280;66072;50.238;19.228;2023-07-13T07:52:42;98234.56;;;27.17;60.76
77118;BME280;66072;50.238;19.228;2023-07-13T07:55:10;98233.47;;;27.07;60.60
77118;BME280;66072;50.238;19.228;2023-07-13T07:57:43;98230.93;;;26.97;60.36
77118;BME280;66072;50.238;19.228;2023-07-13T08:00:14;98227.77;;;26.83;59.45
77118;BME280;66072;50.238;19.228;2023-07-13T08:02:48;98225.00;;;26.69;60.24
77118;BME280;66072;50.238;19.228;2023-07-13T08:05:19;98224.33;;;26.64;60.40
77118;BME280;66072;50.238;19.228;2023-07-13T08:08:05;98225.31;;;26.57;60.79
77118;BME280;66072;50.238;19.228;2023-07-13T08:10:35;98221.41;;;26.56;61.03
77118;BME280;66072;50.238;19.228;2023-07-13T08:13:03;98215.91;;;26.64;59.10
77118;BME280;66072;50.238;19.228;2023-07-13T08:15:34;98214.88;;;26.74;58.89
77118;BME280;66072;50.238;19.228;2023-07-13T08:18:01;98213.09;;;26.93;59.10
77118;BME280;66072;50.238;19.228;2023-07-13T08:20:32;98208.59;;;26.93;57.53
77118;BME280;66072;50.238;19.228;2023-07-13T08:22:59;98204.19;;;26.95;58.40
77118;BME280;66072;50.238;19.228;2023-07-13T08:25:27;98199.86;;;27.09;57.15
77118;BME280;66072;50.238;19.228;2023-07-13T08:27:55;98195.43;;;27.16;56.67
77118;BME280;66072;50.238;19.228;2023-07-13T08:30:23;98193.90;;;27.30;56.56
77118;BME280;66072;50.238;19.228;2023-07-13T08:32:51;98192.85;;;27.33;55.65
77118;BME280;66072;50.238;19.228;2023-07-13T08:35:19;98194.96;;;27.34;56.39
77118;BME280;66072;50.238;19.228;2023-07-13T08:37:46;98193.95;;;27.31;56.33
77118;BME280;66072;50.238;19.228;2023-07-13T08:40:14;98197.39;;;27.24;55.97
77118;BME280;66072;50.238;19.228;2023-07-13T08:42:45;98199.67;;;27.13;56.13
77118;BME280;66072;50.238;19.228;2023-07-13T08:45:20;98197.14;;;27.03;56.23
77118;BME280;66072;50.238;19.228;2023-07-13T08:47:53;98198.31;;;26.86;57.00
77118;BME280;66072;50.238;19.228;2023-07-13T08:50:26;98197.52;;;26.75;57.61
77118;BME280;66072;50.238;19.228;2023-07-13T08:52:56;98193.54;;;26.63;57.71
77118;BME280;66072;50.238;19.228;2023-07-13T08:55:31;98192.96;;;26.59;58.22
77118;BME280;66072;50.238;19.228;2023-07-13T08:58:10;98189.73;;;26.78;58.34
77118;BME280;66072;50.238;19.228;2023-07-13T09:01:18;98193.27;;;26.94;58.84
77118;BME280;66072;50.238;19.228;2023-07-13T09:04:02;98193.02;;;26.99;58.12
77118;BME280;66072;50.238;19.228;2023-07-13T09:06:55;98190.17;;;27.00;58.24
77118;BME280;66072;50.238;19.228;2023-07-13T09:14:42;98191.39;;;27.42;56.06
77118;BME280;66072;50.238;19.228;2023-07-13T09:17:25;98192.09;;;27.35;56.48
77118;BME280;66072;50.238;19.228;2023-07-13T09:20:00;98188.81;;;27.31;56.32
77118;BME280;66072;50.238;19.228;2023-07-13T09:22:34;98191.95;;;27.15;56.83
77118;BME280;66072;50.238;19.228;2023-07-13T09:25:30;98193.72;;;27.04;57.39
77118;BME280;66072;50.238;19.228;2023-07-13T09:28:23;98190.43;;;26.72;57.63
77118;BME280;66072;50.238;19.228;2023-07-13T09:30:58;98192.14;;;26.39;59.13
77118;BME280;66072;50.238;19.228;2023-07-13T09:33:27;98191.48;;;26.02;60.53
77118;BME280;66072;50.238;19.228;2023-07-13T09:35:56;98191.91;;;25.69;60.89
77118;BME280;66072;50.238;19.228;2023-07-13T09:38:26;98195.35;;;25.42;61.70
77118;BME280;66072;50.238;19.228;2023-07-13T09:44:13;98199.61;;;25.10;62.01
77118;BME280;66072;50.238;19.228;2023-07-13T09:46:46;98198.00;;;24.86;62.43
77118;BME280;66072;50.238;19.228;2023-07-13T09:49:14;98195.10;;;24.71;62.84
77118;BME280;66072;50.238;19.228;2023-07-13T09:51:42;98198.34;;;24.48;63.59
77118;BME280;66072;50.238;19.228;2023-07-13T09:54:20;98195.48;;;24.34;64.58
77118;BME280;66072;50.238;19.228;2023-07-13T09:56:54;98197.20;;;24.24;65.12
77118;BME280;66072;50.238;19.228;2023-07-13T09:59:26;98206.21;;;24.17;65.32
77118;BME280;66072;50.238;19.228;2023-07-13T10:01:54;98204.96;;;24.07;65.29
77118;BME280;66072;50.238;19.228;2023-07-13T10:04:35;98211.05;;;23.92;65.87
77118;BME280;66072;50.238;19.228;2023-07-13T10:07:08;98226.63;;;23.45;66.67
77118;BME280;66072;50.238;19.228;2023-07-13T10:09:59;98241.20;;;22.85;68.49
77118;BME280;66072;50.238;19.228;2023-07-13T10:12:29;98238.07;;;22.25;71.48
77118;BME280;66072;50.238;19.228;2023-07-13T10:15:00;98247.87;;;21.70;74.32
77118;BME280;66072;50.238;19.228;2023-07-13T10:17:49;98259.18;;;21.24;76.26
77118;BME280;66072;50.238;19.228;2023-07-13T10:20:18;98266.90;;;20.82;78.18
77118;BME280;66072;50.238;19.228;2023-07-13T10:22:51;98280.61;;;20.24;80.78
77118;BME280;66072;50.238;19.228;2023-07-13T10:25:24;98296.70;;;19.70;81.98
77118;BME280;66072;50.238;19.228;2023-07-13T10:27:56;98302.12;;;19.27;83.01
77118;BME280;66072;50.238;19.228;2023-07-13T10:30:33;98307.39;;;18.89;85.33
77118;BME280;66072;50.238;19.228;2023-07-13T10:33:08;98328.06;;;18.52;86.34
77118;BME280;66072;50.238;19.228;2023-07-13T10:35:39;98338.45;;;18.00;88.88
77118;BME280;66072;50.238;19.228;2023-07-13T10:38:13;98348.04;;;17.56;90.97
77118;BME280;66072;50.238;19.228;2023-07-13T10:40:51;98352.51;;;17.32;92.36
77118;BME280;66072;50.238;19.228;2023-07-13T10:43:33;98354.41;;;17.14;93.16
77118;BME280;66072;50.238;19.228;2023-07-13T10:46:01;98362.23;;;17.04;93.78
77118;BME280;66072;50.238;19.228;2023-07-13T10:48:30;98380.08;;;16.94;94.17
77118;BME280;66072;50.238;19.228;2023-07-13T10:50:58;98389.67;;;16.86;94.47
77118;BME280;66072;50.238;19.228;2023-07-13T10:53:31;98401.30;;;16.81;94.78
77118;BME280;66072;50.238;19.228;2023-07-13T10:56:04;98395.06;;;16.76;94.89
77118;BME280;66072;50.238;19.228;2023-07-13T11:01:16;98391.98;;;16.61;94.83
77118;BME280;66072;50.238;19.228;2023-07-13T11:03:55;98392.29;;;16.54;95.09
77118;BME280;66072;50.238;19.228;2023-07-13T11:06:32;98383.55;;;16.53;95.18
77118;BME280;66072;50.238;19.228;2023-07-13T11:11:50;98379.66;;;16.64;95.25
77118;BME280;66072;50.238;19.228;2023-07-13T11:14:38;98381.59;;;16.73;95.45
77118;BME280;66072;50.238;19.228;2023-07-13T11:28:15;98384.27;;;17.24;94.07
77118;BME280;66072;50.238;19.228;2023-07-13T11:30:50;98386.05;;;17.28;93.58
77118;BME280;66072;50.238;19.228;2023-07-13T11:36:13;98396.87;;;17.42;93.55
77118;BME280;66072;50.238;19.228;2023-07-13T11:39:00;98399.41;;;17.52;93.41
77118;BME280;66072;50.238;19.228;2023-07-13T11:41:37;98399.08;;;17.59;92.67
77118;BME280;66072;50.238;19.228;2023-07-13T11:44:20;98399.71;;;17.66;92.56
77118;BME280;66072;50.238;19.228;2023-07-13T11:46:59;98399.94;;;17.75;91.97
77118;BME280;66072;50.238;19.228;2023-07-13T11:49:31;98399.27;;;17.93;92.23
77118;BME280;66072;50.238;19.228;2023-07-13T11:52:00;98392.45;;;18.11;91.36
77118;BME280;66072;50.238;19.228;2023-07-13T11:57:30;98389.09;;;18.60;90.50
77118;BME280;66072;50.238;19.228;2023-07-13T11:59:58;98386.77;;;18.87;89.90
77118;BME280;66072;50.238;19.228;2023-07-13T12:02:32;98390.71;;;19.10;89.70
77118;BME280;66072;50.238;19.228;2023-07-13T12:05:02;98392.52;;;19.32;88.33
77118;BME280;66072;50.238;19.228;2023-07-13T12:07:32;98393.27;;;19.50;87.68
77118;BME280;66072;50.238;19.228;2023-07-13T12:10:03;98395.44;;;19.70;87.02
77118;BME280;66072;50.238;19.228;2023-07-13T12:12:46;98394.23;;;19.92;86.10
77118;BME280;66072;50.238;19.228;2023-07-13T12:15:14;98388.97;;;20.17;85.42
77118;BME280;66072;50.238;19.228;2023-07-13T12:17:42;98390.55;;;20.43;85.03
77118;BME280;66072;50.238;19.228;2023-07-13T12:20:19;98383.21;;;20.65;84.54
77118;BME280;66072;50.238;19.228;2023-07-13T12:22:48;98377.05;;;20.85;83.15
77118;BME280;66072;50.238;19.228;2023-07-13T12:25:17;98383.42;;;20.97;83.20
77118;BME280;66072;50.238;19.228;2023-07-13T12:27:49;98388.55;;;21.04;81.11
77118;BME280;66072;50.238;19.228;2023-07-13T12:30:23;98390.60;;;21.04;79.17
77118;BME280;66072;50.238;19.228;2023-07-13T12:33:21;98390.60;;;21.03;79.25
77118;BME280;66072;50.238;19.228;2023-07-13T12:35:52;98391.81;;;21.18;79.80
77118;BME280;66072;50.238;19.228;2023-07-13T12:38:20;98393.20;;;21.46;80.76
77118;BME280;66072;50.238;19.228;2023-07-13T12:40:52;98392.53;;;21.87;80.17
77118;BME280;66072;50.238;19.228;2023-07-13T12:43:22;98394.60;;;22.30;77.23
77118;BME280;66072;50.238;19.228;2023-07-13T12:46:03;98387.52;;;22.74;75.45
77118;BME280;66072;50.238;19.228;2023-07-13T12:48:38;98392.97;;;23.27;71.95
77118;BME280;66072;50.238;19.228;2023-07-13T12:51:22;98393.35;;;23.92;70.84
77118;BME280;66072;50.238;19.228;2023-07-13T12:53:56;98390.26;;;24.32;70.67
77118;BME280;66072;50.238;19.228;2023-07-13T12:56:26;98394.34;;;24.33;69.11
77118;BME280;66072;50.238;19.228;2023-07-13T12:59:02;98399.23;;;24.04;68.67
77118;BME280;66072;50.238;19.228;2023-07-13T13:01:32;98397.58;;;23.71;67.56
77118;BME280;66072;50.238;19.228;2023-07-13T13:04:03;98399.95;;;23.51;68.08
77118;BME280;66072;50.238;19.228;2023-07-13T13:06:31;98401.82;;;23.29;67.88
77118;BME280;66072;50.238;19.228;2023-07-13T13:08:59;98408.88;;;23.33;67.73
77118;BME280;66072;50.238;19.228;2023-07-13T13:11:29;98417.12;;;23.63;66.40
77118;BME280;66072;50.238;19.228;2023-07-13T13:13:57;98418.05;;;23.83;66.05
77118;BME280;66072;50.238;19.228;2023-07-13T13:16:33;98427.45;;;24.26;65.17
77118;BME280;66072;50.238;19.228;2023-07-13T13:19:23;98421.90;;;24.42;63.82
77118;BME280;66072;50.238;19.228;2023-07-13T13:21:54;98420.45;;;23.99;64.79
77118;BME280;66072;50.238;19.228;2023-07-13T13:24:24;98427.20;;;23.69;65.84
77118;BME280;66072;50.238;19.228;2023-07-13T13:26:53;98433.45;;;23.66;66.27
77118;BME280;66072;50.238;19.228;2023-07-13T13:29:23;98437.83;;;23.64;66.63
77118;BME280;66072;50.238;19.228;2023-07-13T13:31:55;98442.68;;;23.64;65.47
77118;BME280;66072;50.238;19.228;2023-07-13T13:34:24;98441.00;;;23.47;65.48
77118;BME280;66072;50.238;19.228;2023-07-13T13:36:53;98439.73;;;23.93;64.49
77118;BME280;66072;50.238;19.228;2023-07-13T13:39:34;98446.69;;;24.71;62.64
77118;BME280;66072;50.238;19.228;2023-07-13T13:42:02;98437.56;;;25.75;58.80